EST,Max TemperatureF,Mean TemperatureF,Min TemperatureF,Max Dew PointF,MeanDew PointF,Min DewpointF,Max Humidity, Mean Humidity, Min Humidity, Max Sea Level PressureIn, Mean Sea Level PressureIn, Min Sea Level PressureIn, Max VisibilityMiles, Mean VisibilityMiles, Min VisibilityMiles, Max Wind SpeedMPH, Mean Wind SpeedMPH, Max Gust SpeedMPH,PrecipitationIn, CloudCover, Events, WindDirDegrees
2013-1-1,48,46,43,47,39,27,93,71,49,30.06,29.99,29.92,10,7,1,16,7,21,0.25,7,Rain,235
2013-1-2,48,44,39,47,36,28,100,79,58,30.17,30.05,29.93,10,8,0,15,6,22,0.17,6,Fog-Rain,30
2013-1-3,41,35,28,29,27,23,85,66,46,30.26,30.19,30.13,10,10,9,9,3,10,0.00,6,,23
2013-1-4,48,36,24,23,19,16,78,48,17,30.32,30.27,30.19,10,10,10,15,7,21,0.00,1,,298
2013-1-5,49,36,23,27,21,18,75,52,29,30.39,30.30,30.21,10,10,10,12,4,15,T,2,Rain,230
2013-1-6,52,45,37,35,32,28,92,71,50,30.21,30.13,30.04,10,10,9,12,3,16,0.01,6,Rain,223
2013-1-7,50,41,31,28,27,25,75,59,42,30.42,30.35,30.19,10,10,10,13,2,17,0.00,1,,9
2013-1-8,55,42,28,39,33,25,92,71,50,30.46,30.40,30.36,10,10,7,8,2,12,0.00,5,,232
2013-1-9,63,50,37,49,43,35,92,76,60,30.44,30.39,30.36,10,9,5,13,3,15,0.00,4,,247
2013-1-10,60,53,46,48,38,27,93,61,28,30.52,30.45,30.40,10,10,7,13,4,14,0.00,1,,48
2013-1-11,50,45,40,45,41,37,100,81,61,30.38,30.28,30.16,10,3,0,12,5,14,0.11,8,Fog-Rain,65
2013-1-12,64,55,45,57,52,45,100,89,78,30.17,30.12,30.08,10,3,0,8,3,10,T,5,Fog,221
2013-1-13,73,63,52,59,55,52,100,81,61,30.11,30.07,30.02,10,5,0,21,7,25,0.00,2,Fog,205
2013-1-14,63,58,52,63,59,51,100,92,84,30.17,30.10,30.05,10,5,0,22,7,26,0.69,7,Rain,194
2013-1-15,52,46,40,48,42,39,100,96,92,30.21,30.16,30.07,10,3,1,21,10,28,0.19,8,Rain,51
2013-1-16,49,44,38,48,42,37,100,96,92,30.07,30.01,29.96,10,5,1,12,5,16,0.54,8,Rain,19
2013-1-17,49,41,32,48,41,32,100,96,92,30.17,29.98,29.89,10,3,1,28,11,38,2.45,8,Rain-Snow-Thunderstorm,27
2013-1-18,43,35,27,32,27,22,100,72,43,30.52,30.40,30.15,10,10,10,13,2,17,0.00,1,,316
2013-1-19,49,37,25,29,25,22,92,69,46,30.48,30.34,30.14,10,10,10,14,7,16,0.00,0,,226
2013-1-20,60,47,33,33,28,24,75,53,31,30.12,30.06,29.99,10,10,10,18,8,24,0.00,0,,267
2013-1-21,57,43,28,31,24,12,85,56,27,30.07,29.98,29.87,10,10,10,26,9,36,0.00,0,,266
2013-1-22,38,31,23,9,0,-7,42,29,16,30.26,30.16,29.98,10,10,10,21,8,25,0.00,0,,319
2013-1-23,41,30,19,16,8,-2,57,43,29,30.35,30.23,30.04,10,10,10,20,6,24,0.00,1,,218
2013-1-24,37,30,23,24,9,-1,78,52,25,30.49,30.26,29.96,10,10,10,21,8,30,0.00,1,,359
2013-1-25,25,23,21,23,12,1,96,68,39,30.51,30.29,30.11,10,9,3,14,7,17,0.11,6,Rain-Snow,206
2013-1-26,39,31,22,31,25,21,100,82,64,30.40,30.19,30.05,10,6,2,10,3,22,0.00,2,,276
2013-1-27,40,32,24,26,23,18,81,68,54,30.58,30.49,30.40,10,10,7,13,6,15,0.00,2,,109
2013-1-28,48,41,33,42,34,26,92,75,58,30.46,30.35,30.22,10,7,2,16,8,20,0.05,6,Rain,219
2013-1-29,71,58,44,55,48,43,100,77,53,30.22,30.15,30.02,10,6,0,16,9,24,0.00,4,Fog,230
2013-1-30,72,65,57,63,60,55,93,77,61,30.00,29.70,29.37,10,9,1,32,20,41,0.90,8,Rain,198
2013-1-31,57,45,33,52,26,17,93,63,33,29.99,29.77,29.44,10,10,8,31,18,41,T,3,Rain,263